Time;durP1;ratioP1;P1;durP2;ratioP2;P2;SDS_P1;SDS_P2;PMS_P1;PMS_P2;Temp;Humidity;BMP_temperature;BMP_pressure;BME280_temperature;BME280_humidity;BME280_pressure;Samples;Min_cycle;Max_cycle;Signal;HPM_P1;HPM_P2
2023/10/14 00:00:53;;;;;;;8.77;2.65;;;;;;;;;;4955315;28;20031;-84
2023/10/14 00:03:43;;;;;;;6.22;2.28;;;;;;;;;;4972756;28;20033;-82
2023/10/14 00:06:29;;;;;;;7.95;3.47;;;;;;;;;;4955445;28;20513;-82
2023/10/14 00:09:19;;;;;;;9.38;3.38;;;;;;;;;;4970951;28;20027;-83
2023/10/14 00:12:12;;;;;;;5.60;2.88;;;;;;;;;;4952413;29;20034;-82
2023/10/14 00:15:03;;;;;;;9.05;3.45;;;;;;;;;;4946420;28;20085;-83
2023/10/14 00:17:49;;;;;;;5.90;2.80;;;;;;;;;;4946929;28;20060;-83
2023/10/14 00:20:35;;;;;;;6.85;2.70;;;;;;;;;;4923779;29;20036;-82
2023/10/14 00:23:26;;;;;;;7.25;3.55;;;;;;;;;;4920017;29;20026;-82
2023/10/14 00:26:16;;;;;;;6.95;3.13;;;;;;;;;;4911638;29;20028;-83
2023/10/14 00:32:16;;;;;;;6.47;3.55;;;;;;;;;;4915678;29;20717;-83
2023/10/14 00:35:06;;;;;;;6.18;3.72;;;;;;;;;;4920293;29;20059;-83
2023/10/14 00:37:52;;;;;;;6.15;3.75;;;;;;;;;;4927089;29;20039;-82
2023/10/14 00:40:38;;;;;;;10.00;4.45;;;;;;;;;;4922523;29;20032;-83
2023/10/14 00:43:23;;;;;;;8.48;4.00;;;;;;;;;;4933413;29;20032;-81
2023/10/14 00:46:15;;;;;;;12.52;4.15;;;;;;;;;;4904520;29;20042;-83
2023/10/14 00:49:03;;;;;;;9.13;3.80;;;;;;;;;;4932818;29;20031;-83
2023/10/14 00:51:53;;;;;;;9.18;4.05;;;;;;;;;;4913499;29;20038;-82
2023/10/14 00:57:38;;;;;;;10.73;3.90;;;;;;;;;;4918003;29;20144;-81
2023/10/14 01:03:36;;;;;;;13.27;4.60;;;;;;;;;;4921491;29;20036;-83
2023/10/14 01:06:34;;;;;;;11.05;4.45;;;;;;;;;;4916113;29;20063;-83
2023/10/14 01:09:19;;;;;;;8.68;4.40;;;;;;;;;;4916613;29;20490;-84
2023/10/14 01:12:11;;;;;;;11.65;5.07;;;;;;;;;;4918370;29;20043;-83
2023/10/14 01:15:04;;;;;;;9.48;4.25;;;;;;;;;;4909967;29;20023;-83
2023/10/14 01:17:52;;;;;;;7.15;4.15;;;;;;;;;;4956604;28;20047;-83
2023/10/14 01:20:38;;;;;;;7.60;4.05;;;;;;;;;;4935309;29;20501;-83
2023/10/14 01:23:24;;;;;;;8.00;4.82;;;;;;;;;;4919559;29;20543;-83
2023/10/14 01:26:10;;;;;;;9.98;5.07;;;;;;;;;;4934369;29;20031;-82
2023/10/14 01:29:00;;;;;;;7.85;3.95;;;;;;;;;;4950055;28;20034;-82
2023/10/14 01:32:10;;;;;;;9.80;5.22;;;;;;;;;;4932065;28;20034;-82
2023/10/14 01:35:00;;;;;;;11.93;4.82;;;;;;;;;;4934889;28;20035;-82
2023/10/14 01:37:46;;;;;;;10.75;5.32;;;;;;;;;;4937887;28;20051;-81
2023/10/14 01:43:42;;;;;;;8.30;4.50;;;;;;;;;;4923302;29;20027;-83
2023/10/14 01:46:27;;;;;;;11.68;4.65;;;;;;;;;;4932025;29;20027;-83
2023/10/14 01:49:18;;;;;;;7.78;4.53;;;;;;;;;;4936323;28;20035;-84
2023/10/14 01:52:08;;;;;;;9.75;4.38;;;;;;;;;;4935594;29;20023;-82
2023/10/14 01:54:55;;;;;;;7.57;4.75;;;;;;;;;;4949720;28;20043;-83
2023/10/14 01:57:42;;;;;;;12.00;4.72;;;;;;;;;;4938803;29;20035;-83
2023/10/14 02:00:28;;;;;;;13.02;5.30;;;;;;;;;;4945097;28;20385;-83
2023/10/14 02:03:15;;;;;;;9.80;4.53;;;;;;;;;;4937911;29;20027;-83
2023/10/14 02:06:04;;;;;;;8.95;5.07;;;;;;;;;;4927845;29;20477;-83
2023/10/14 02:08:52;;;;;;;10.00;5.07;;;;;;;;;;4937126;28;20039;-82
2023/10/14 02:11:38;;;;;;;8.70;4.37;;;;;;;;;;4948632;29;20279;-82
2023/10/14 02:14:24;;;;;;;8.40;4.80;;;;;;;;;;4955484;29;20334;-82
2023/10/14 02:17:12;;;;;;;11.63;4.87;;;;;;;;;;4959289;28;20062;-82
2023/10/14 02:20:08;;;;;;;10.82;5.03;;;;;;;;;;4965237;28;20110;-82
2023/10/14 02:22:57;;;;;;;8.68;4.45;;;;;;;;;;4957438;28;20134;-82
2023/10/14 02:25:43;;;;;;;;;;;;;;;;;;4935151;29;20066;-82
2023/10/14 02:28:39;;;;;;;10.68;5.45;;;;;;;;;;4939154;28;19937;-81
2023/10/14 02:34:14;;;;;;;8.88;4.53;;;;;;;;;;4936991;29;20034;-82
2023/10/14 02:37:05;;;;;;;9.38;5.53;;;;;;;;;;4944744;29;20253;-82
2023/10/14 02:39:50;;;;;;;7.55;4.53;;;;;;;;;;4944347;28;20046;-82
2023/10/14 02:42:36;;;;;;;9.25;5.28;;;;;;;;;;4931508;29;20023;-82
2023/10/14 02:45:21;;;;;;;12.00;5.47;;;;;;;;;;4938760;28;21160;-80
2023/10/14 02:48:06;;;;;;;12.65;4.45;;;;;;;;;;4941564;28;20121;-81
2023/10/14 02:50:51;;;;;;;8.40;5.50;;;;;;;;;;4961074;28;20023;-81
2023/10/14 02:53:38;;;;;;;12.60;5.75;;;;;;;;;;4940821;29;20055;-82
2023/10/14 02:56:43;;;;;;;13.23;5.15;;;;;;;;;;4934647;28;20079;-83
2023/10/14 02:59:38;;;;;;;8.48;4.80;;;;;;;;;;4951755;28;20030;-82
2023/10/14 03:02:25;;;;;;;10.02;5.45;;;;;;;;;;4957633;28;20098;-81
2023/10/14 03:05:13;;;;;;;9.43;4.63;;;;;;;;;;4936976;29;20051;-82
2023/10/14 03:08:06;;;;;;;6.95;4.38;;;;;;;;;;4933821;29;20026;-81
2023/10/14 03:10:59;;;;;;;15.75;6.65;;;;;;;;;;4931467;28;20499;-82
2023/10/14 03:13:45;;;;;;;8.55;4.60;;;;;;;;;;4934725;29;20050;-82
2023/10/14 03:16:30;;;;;;;10.18;4.68;;;;;;;;;;4936056;29;20027;-82
2023/10/14 03:19:16;;;;;;;10.95;4.93;;;;;;;;;;4968003;28;20604;-82
2023/10/14 03:22:06;;;;;;;6.40;4.53;;;;;;;;;;4945636;28;20023;-82
2023/10/14 03:24:52;;;;;;;6.60;4.70;;;;;;;;;;4928204;28;20067;-81
2023/10/14 03:27:39;;;;;;;10.02;5.03;;;;;;;;;;4965093;28;20397;-81
2023/10/14 03:30:25;;;;;;;11.18;5.00;;;;;;;;;;4951595;28;20058;-82
2023/10/14 03:33:13;;;;;;;11.10;4.80;;;;;;;;;;4953671;28;20024;-82
2023/10/14 03:36:08;;;;;;;12.75;5.15;;;;;;;;;;4954701;28;20024;-82
2023/10/14 03:39:18;;;;;;;9.98;5.38;;;;;;;;;;4951806;28;20477;-83
2023/10/14 03:42:09;;;;;;;8.75;5.15;;;;;;;;;;4947451;28;20057;-82
2023/10/14 03:44:58;;;;;;;8.27;5.05;;;;;;;;;;4950712;28;20031;-81
2023/10/14 03:47:45;;;;;;;9.15;4.90;;;;;;;;;;4961662;28;20031;-82
2023/10/14 03:50:30;;;;;;;8.52;4.45;;;;;;;;;;4948821;28;20039;-81
2023/10/14 03:53:21;;;;;;;11.23;5.28;;;;;;;;;;4948636;29;20035;-81
2023/10/14 03:56:06;;;;;;;9.65;4.72;;;;;;;;;;4948714;28;20031;-81
2023/10/14 03:58:55;;;;;;;9.88;4.53;;;;;;;;;;4952607;28;20035;-81
2023/10/14 04:04:27;;;;;;;10.25;5.07;;;;;;;;;;4953358;29;20032;-80
2023/10/14 04:10:04;;;;;;;14.20;5.32;;;;;;;;;;4950841;28;20453;-81
2023/10/14 04:12:53;;;;;;;10.77;4.90;;;;;;;;;;4947631;28;20564;-82
2023/10/14 04:15:48;;;;;;;8.27;5.18;;;;;;;;;;4948704;28;20086;-83
2023/10/14 04:18:34;;;;;;;11.82;5.55;;;;;;;;;;4943807;28;20083;-83
2023/10/14 04:21:25;;;;;;;8.32;4.90;;;;;;;;;;4947805;28;20393;-83
2023/10/14 04:27:21;;;;;;;8.57;5.22;;;;;;;;;;4948747;28;20035;-82
2023/10/14 04:30:16;;;;;;;10.30;5.32;;;;;;;;;;4941121;28;20019;-83
2023/10/14 04:39:05;;;;;;;9.20;4.75;;;;;;;;;;4955710;28;20030;-81
2023/10/14 04:41:58;;;;;;;7.60;4.47;;;;;;;;;;4941076;28;20106;-81
2023/10/14 04:44:59;;;;;;;9.07;5.28;;;;;;;;;;4955109;28;20031;-82
2023/10/14 04:47:47;;;;;;;14.68;4.85;;;;;;;;;;4962721;28;20043;-83
2023/10/14 04:50:33;;;;;;;11.02;4.97;;;;;;;;;;4938577;28;20042;-83
2023/10/14 04:53:19;;;;;;;11.23;4.75;;;;;;;;;;4953606;28;20188;-83
2023/10/14 04:56:09;;;;;;;8.75;4.30;;;;;;;;;;4950374;29;20027;-83
2023/10/14 04:58:54;;;;;;;9.07;4.22;;;;;;;;;;4946478;28;20035;-82
2023/10/14 05:01:42;;;;;;;9.38;4.93;;;;;;;;;;4951067;28;20035;-82
2023/10/14 05:04:30;;;;;;;8.25;5.15;;;;;;;;;;4949998;29;20175;-82
2023/10/14 05:07:16;;;;;;;8.73;5.10;;;;;;;;;;4949125;28;20015;-82
2023/10/14 05:10:07;;;;;;;8.85;4.82;;;;;;;;;;4947519;28;20078;-82
2023/10/14 05:12:52;;;;;;;8.93;4.60;;;;;;;;;;4958026;28;20023;-82
2023/10/14 05:15:39;;;;;;;8.50;4.10;;;;;;;;;;4951975;28;20018;-82
2023/10/14 05:18:35;;;;;;;7.97;4.13;;;;;;;;;;4950703;29;20062;-82
2023/10/14 05:21:35;;;;;;;7.60;4.80;;;;;;;;;;4952592;28;20015;-82
2023/10/14 05:24:23;;;;;;;9.25;4.30;;;;;;;;;;4952482;28;20445;-82
2023/10/14 05:27:08;;;;;;;10.05;5.35;;;;;;;;;;4945891;29;20032;-82
2023/10/14 05:29:54;;;;;;;10.50;5.50;;;;;;;;;;4953084;28;20058;-82
2023/10/14 05:32:40;;;;;;;10.45;5.07;;;;;;;;;;4951497;28;20034;-83
2023/10/14 05:35:25;;;;;;;7.65;5.18;;;;;;;;;;4947785;28;20086;-82
2023/10/14 05:38:10;;;;;;;14.45;5.00;;;;;;;;;;4952386;28;20032;-84
2023/10/14 05:40:57;;;;;;;9.63;5.03;;;;;;;;;;4951373;28;20027;-83
2023/10/14 05:43:42;;;;;;;10.50;4.90;;;;;;;;;;4968240;28;20531;-84
2023/10/14 05:46:27;;;;;;;10.38;5.22;;;;;;;;;;4950421;28;20385;-83
2023/10/14 05:49:12;;;;;;;15.80;5.38;;;;;;;;;;4950718;29;20758;-82
2023/10/14 05:51:58;;;;;;;8.82;4.68;;;;;;;;;;4946629;29;20401;-82
2023/10/14 05:54:45;;;;;;;11.48;5.68;;;;;;;;;;4948413;28;20098;-82
2023/10/14 05:57:30;;;;;;;7.93;4.80;;;;;;;;;;4952897;28;20031;-83
2023/10/14 06:00:22;;;;;;;8.00;4.10;;;;;;;;;;4947292;28;20035;-83
2023/10/14 06:03:11;;;;;;;9.75;4.93;;;;;;;;;;4943313;28;20030;-82
2023/10/14 06:06:00;;;;;;;9.70;4.43;;;;;;;;;;4950712;28;20038;-82
2023/10/14 06:08:49;;;;;;;10.95;5.38;;;;;;;;;;4955541;28;20052;-81
2023/10/14 06:11:34;;;;;;;13.27;4.80;;;;;;;;;;4956966;28;20030;-82
2023/10/14 06:14:19;;;;;;;13.55;4.75;;;;;;;;;;4944324;28;20027;-82
2023/10/14 06:17:05;;;;;;;15.07;4.80;;;;;;;;;;4937920;29;20127;-82
2023/10/14 06:19:53;;;;;;;8.18;4.68;;;;;;;;;;4951758;28;20045;-82
2023/10/14 06:22:39;;;;;;;10.05;4.70;;;;;;;;;;4953989;29;20062;-82
2023/10/14 06:25:31;;;;;;;9.15;4.93;;;;;;;;;;4949928;28;20114;-82
2023/10/14 06:28:17;;;;;;;10.35;4.15;;;;;;;;;;4954073;29;20078;-82
2023/10/14 06:31:04;;;;;;;9.70;4.03;;;;;;;;;;4953659;28;20119;-80
2023/10/14 06:33:49;;;;;;;11.70;4.93;;;;;;;;;;4953775;28;20034;-81
2023/10/14 06:36:37;;;;;;;9.45;4.32;;;;;;;;;;4954709;28;20111;-79
2023/10/14 06:39:28;;;;;;;11.88;4.53;;;;;;;;;;4957928;28;20110;-81
2023/10/14 06:42:17;;;;;;;12.18;5.03;;;;;;;;;;4946840;28;20019;-81
2023/10/14 06:45:05;;;;;;;12.60;4.72;;;;;;;;;;4954369;28;20027;-81
2023/10/14 06:47:51;;;;;;;10.70;4.43;;;;;;;;;;4966760;28;20030;-82
2023/10/14 06:50:42;;;;;;;9.82;4.25;;;;;;;;;;4945692;28;20083;-82
2023/10/14 06:53:31;;;;;;;11.60;4.65;;;;;;;;;;4946783;29;20042;-82
2023/10/14 06:56:16;;;;;;;8.05;4.15;;;;;;;;;;4945464;28;20044;-83
2023/10/14 06:59:02;;;;;;;19.45;4.57;;;;;;;;;;4947444;28;20369;-81
2023/10/14 07:01:47;;;;;;;8.10;3.85;;;;;;;;;;4953288;29;20027;-82
2023/10/14 07:04:41;;;;;;;9.25;4.25;;;;;;;;;;4953558;29;20090;-83
2023/10/14 07:07:27;;;;;;;9.80;4.38;;;;;;;;;;4959183;28;20031;-82
2023/10/14 07:10:13;;;;;;;7.32;4.00;;;;;;;;;;4951617;29;20478;-82
2023/10/14 07:13:00;;;;;;;9.27;4.70;;;;;;;;;;4954974;29;20063;-82
2023/10/14 07:15:46;;;;;;;7.13;4.03;;;;;;;;;;4952628;28;20030;-82
2023/10/14 07:18:36;;;;;;;8.77;4.68;;;;;;;;;;4949334;28;20042;-84
2023/10/14 07:21:22;;;;;;;8.88;4.10;;;;;;;;;;4965763;28;20027;-85
2023/10/14 07:24:07;;;;;;;11.20;4.60;;;;;;;;;;4960204;28;20027;-85
2023/10/14 07:26:56;;;;;;;10.98;5.45;;;;;;;;;;4936958;29;20042;-85
2023/10/14 07:29:45;;;;;;;8.48;4.15;;;;;;;;;;4949378;28;20030;-84
2023/10/14 07:32:33;;;;;;;9.82;4.95;;;;;;;;;;4959388;28;20043;-84
2023/10/14 07:35:18;;;;;;;9.18;4.15;;;;;;;;;;4952214;28;20503;-82
2023/10/14 07:38:04;;;;;;;13.10;4.63;;;;;;;;;;4940728;29;20045;-82
2023/10/14 07:40:49;;;;;;;9.10;4.47;;;;;;;;;;4949054;28;20118;-82
2023/10/14 07:43:35;;;;;;;11.98;4.10;;;;;;;;;;4951744;28;20026;-83
2023/10/14 07:46:20;;;;;;;12.38;4.07;;;;;;;;;;4950063;29;20023;-81
2023/10/14 07:49:07;;;;;;;12.65;4.10;;;;;;;;;;4949935;28;20429;-80
2023/10/14 07:51:54;;;;;;;9.20;3.55;;;;;;;;;;4947043;28;20474;-80
2023/10/14 07:54:42;;;;;;;7.75;3.65;;;;;;;;;;4961612;28;20047;-80
2023/10/14 07:57:27;;;;;;;4.50;3.22;;;;;;;;;;4957050;28;20370;-82
2023/10/14 08:00:13;;;;;;;7.28;3.88;;;;;;;;;;4950030;29;20027;-82
2023/10/14 08:03:05;;;;;;;8.80;4.20;;;;;;;;;;4952980;29;20377;-81
2023/10/14 08:05:52;;;;;;;8.55;3.22;;;;;;;;;;4948060;29;20026;-81
2023/10/14 08:08:47;;;;;;;8.15;3.47;;;;;;;;;;4949218;28;20509;-81
2023/10/14 08:11:37;;;;;;;7.10;3.88;;;;;;;;;;4958017;28;20070;-83
2023/10/14 08:14:22;;;;;;;7.10;3.50;;;;;;;;;;4957677;28;20027;-82
2023/10/14 08:17:11;;;;;;;9.82;3.67;;;;;;;;;;4954455;28;20039;-81
2023/10/14 08:19:56;;;;;;;5.25;3.17;;;;;;;;;;4950429;28;20042;-80
2023/10/14 08:22:46;;;;;;;4.93;2.80;;;;;;;;;;4952308;29;20039;-81
2023/10/14 08:25:34;;;;;;;5.10;2.47;;;;;;;;;;4957593;28;20496;-81
2023/10/14 08:28:27;;;;;;;7.75;2.63;;;;;;;;;;4953660;29;20382;-80
2023/10/14 08:31:12;;;;;;;5.50;1.90;;;;;;;;;;4946490;29;20032;-80
2023/10/14 08:33:57;;;;;;;3.38;1.83;;;;;;;;;;4952255;28;20043;-79
2023/10/14 08:36:43;;;;;;;4.18;2.38;;;;;;;;;;4948003;29;20038;-80
2023/10/14 08:39:31;;;;;;;4.10;2.28;;;;;;;;;;4948598;29;20378;-81
2023/10/14 08:42:16;;;;;;;3.70;1.73;;;;;;;;;;4959952;28;20015;-78
2023/10/14 08:45:04;;;;;;;5.18;1.80;;;;;;;;;;4958335;28;20069;-79
2023/10/14 08:47:54;;;;;;;6.45;2.00;;;;;;;;;;4948727;28;20180;-79
2023/10/14 08:50:40;;;;;;;3.45;1.55;;;;;;;;;;4947099;28;20023;-79
2023/10/14 08:53:26;;;;;;;4.20;1.67;;;;;;;;;;4948389;29;20035;-79
2023/10/14 08:56:12;;;;;;;4.63;2.10;;;;;;;;;;4950011;28;20035;-77
2023/10/14 08:58:57;;;;;;;4.18;2.35;;;;;;;;;;4951564;28;20024;-82
2023/10/14 09:01:43;;;;;;;3.53;1.77;;;;;;;;;;4937184;29;20138;-87
2023/10/14 09:04:29;;;;;;;4.75;1.85;;;;;;;;;;4958426;28;20051;-83
2023/10/14 09:07:14;;;;;;;4.00;2.15;;;;;;;;;;4952278;29;20034;-81
2023/10/14 09:09:59;;;;;;;6.75;2.22;;;;;;;;;;4946243;28;20485;-81
2023/10/14 09:12:58;;;;;;;7.75;2.47;;;;;;;;;;4950747;28;20037;-79
2023/10/14 09:15:44;;;;;;;8.35;3.13;;;;;;;;;;4945913;28;20038;-80
2023/10/14 09:18:32;;;;;;;8.00;2.03;;;;;;;;;;4948425;28;20050;-77
2023/10/14 09:21:17;;;;;;;2.83;1.10;;;;;;;;;;4956199;28;20751;-78
2023/10/14 09:24:08;;;;;;;1.73;0.73;;;;;;;;;;4959874;28;20102;-78
2023/10/14 09:26:54;;;;;;;4.72;1.40;;;;;;;;;;4949495;28;20472;-77
2023/10/14 09:29:39;;;;;;;3.42;1.27;;;;;;;;;;4950365;28;20035;-79
2023/10/14 09:32:25;;;;;;;3.75;1.17;;;;;;;;;;4949233;28;20061;-78
2023/10/14 09:35:10;;;;;;;4.75;1.40;;;;;;;;;;4946104;28;20681;-79
2023/10/14 09:37:55;;;;;;;0.95;0.80;;;;;;;;;;4962258;28;20397;-83
2023/10/14 09:40:42;;;;;;;3.13;1.25;;;;;;;;;;4960912;28;20019;-77
2023/10/14 09:43:27;;;;;;;3.53;1.20;;;;;;;;;;4963028;29;20023;-81
2023/10/14 09:46:15;;;;;;;3.53;0.98;;;;;;;;;;4948721;28;20544;-79
2023/10/14 09:49:01;;;;;;;3.15;1.15;;;;;;;;;;4959018;28;20106;-81
2023/10/14 09:51:48;;;;;;;0.70;0.70;;;;;;;;;;4962873;28;20059;-80
2023/10/14 09:54:34;;;;;;;1.02;1.00;;;;;;;;;;4953950;28;20523;-80
2023/10/14 09:57:19;;;;;;;2.22;1.00;;;;;;;;;;4962714;28;20449;-79
2023/10/14 10:00:07;;;;;;;1.17;0.90;;;;;;;;;;4949076;28;20363;-81
2023/10/14 10:02:53;;;;;;;0.95;0.90;;;;;;;;;;4960118;28;20031;-81
2023/10/14 10:05:41;;;;;;;1.55;0.90;;;;;;;;;;4949099;28;20031;-81
2023/10/14 10:08:43;;;;;;;0.80;0.80;;;;;;;;;;4950333;29;20031;-81
2023/10/14 10:11:29;;;;;;;1.80;0.90;;;;;;;;;;4948316;28;20057;-87
2023/10/14 10:14:17;;;;;;;0.77;0.70;;;;;;;;;;4948305;28;20058;-80
2023/10/14 10:17:08;;;;;;;0.95;0.80;;;;;;;;;;4965721;28;20054;-80
2023/10/14 10:20:00;;;;;;;3.03;0.90;;;;;;;;;;4960841;28;20042;-84
2023/10/14 10:22:50;;;;;;;1.50;0.85;;;;;;;;;;4969310;28;20007;-83
2023/10/14 10:25:35;;;;;;;1.08;0.90;;;;;;;;;;4959406;28;20028;-81
2023/10/14 10:28:26;;;;;;;1.80;0.80;;;;;;;;;;4961287;28;20362;-81
2023/10/14 10:31:20;;;;;;;2.72;1.00;;;;;;;;;;4945560;28;20397;-83
2023/10/14 10:34:08;;;;;;;1.10;1.00;;;;;;;;;;4962942;28;20086;-84
2023/10/14 10:36:54;;;;;;;1.65;0.60;;;;;;;;;;4963949;28;20111;-82
2023/10/14 10:39:40;;;;;;;2.00;0.73;;;;;;;;;;4978434;28;20031;-82
2023/10/14 10:42:25;;;;;;;0.80;0.68;;;;;;;;;;4975001;28;20023;-82
2023/10/14 10:45:21;;;;;;;1.17;0.82;;;;;;;;;;4974079;28;20019;-82
2023/10/14 10:48:07;;;;;;;1.05;0.90;;;;;;;;;;4949642;28;20038;-81
2023/10/14 10:50:52;;;;;;;1.92;0.98;;;;;;;;;;4956428;28;20438;-81
2023/10/14 10:53:38;;;;;;;0.60;0.60;;;;;;;;;;4948352;28;20272;-81
2023/10/14 10:56:26;;;;;;;1.48;0.88;;;;;;;;;;4946236;28;20024;-82
2023/10/14 10:59:11;;;;;;;2.63;1.00;;;;;;;;;;4950158;28;20023;-81
2023/10/14 11:01:58;;;;;;;0.95;0.70;;;;;;;;;;4953056;28;20069;-84
2023/10/14 11:04:45;;;;;;;1.17;1.02;;;;;;;;;;4949056;28;20544;-90
2023/10/14 11:07:32;;;;;;;2.30;0.80;;;;;;;;;;4952010;28;20089;-86
2023/10/14 11:10:21;;;;;;;1.20;0.70;;;;;;;;;;4966457;28;20031;-84
2023/10/14 11:13:11;;;;;;;1.38;0.80;;;;;;;;;;4946011;29;20554;-83
2023/10/14 11:15:56;;;;;;;1.67;0.77;;;;;;;;;;4955487;28;20125;-85
2023/10/14 11:18:46;;;;;;;0.63;0.63;;;;;;;;;;4953499;29;20057;-84
2023/10/14 11:21:31;;;;;;;1.85;1.10;;;;;;;;;;4948762;28;20026;-82
2023/10/14 11:24:17;;;;;;;1.83;1.00;;;;;;;;;;4963481;28;20023;-82
2023/10/14 11:27:03;;;;;;;4.47;1.02;;;;;;;;;;4952165;28;20043;-89
2023/10/14 11:29:48;;;;;;;1.63;0.80;;;;;;;;;;4962405;28;20037;-88
2023/10/14 11:32:33;;;;;;;1.17;0.82;;;;;;;;;;4952372;29;20061;-91
2023/10/14 11:35:21;;;;;;;1.75;0.60;;;;;;;;;;4951125;28;20041;-82
2023/10/14 11:38:12;;;;;;;1.15;0.70;;;;;;;;;;4960846;28;20130;-82
2023/10/14 11:40:58;;;;;;;1.63;0.70;;;;;;;;;;4948540;28;20027;-82
2023/10/14 11:43:44;;;;;;;3.55;0.90;;;;;;;;;;4969051;28;20332;-82
2023/10/14 11:46:29;;;;;;;0.63;0.63;;;;;;;;;;4946155;28;20036;-82
2023/10/14 11:49:14;;;;;;;1.77;1.02;;;;;;;;;;4955313;28;20035;-80
2023/10/14 11:52:00;;;;;;;1.10;0.80;;;;;;;;;;4953534;28;20019;-82
2023/10/14 11:54:46;;;;;;;0.95;0.80;;;;;;;;;;4963831;28;20086;-83
2023/10/14 11:57:31;;;;;;;1.25;0.70;;;;;;;;;;4950787;29;20039;-81
2023/10/14 12:00:20;;;;;;;2.75;0.80;;;;;;;;;;4952306;28;20034;-83
2023/10/14 12:03:05;;;;;;;0.60;0.60;;;;;;;;;;4945017;28;20035;-82
2023/10/14 12:05:51;;;;;;;1.67;0.90;;;;;;;;;;4940078;29;20070;-83
2023/10/14 12:08:37;;;;;;;1.05;0.60;;;;;;;;;;4966261;28;20039;-83
2023/10/14 12:11:22;;;;;;;0.82;0.60;;;;;;;;;;4955593;28;20121;-84
2023/10/14 12:14:10;;;;;;;0.80;0.60;;;;;;;;;;4950188;29;20478;-84
2023/10/14 12:16:56;;;;;;;0.93;0.70;;;;;;;;;;4945505;29;20055;-84
2023/10/14 12:19:41;;;;;;;0.50;0.50;;;;;;;;;;4952242;28;20035;-83
2023/10/14 12:22:26;;;;;;;0.85;0.82;;;;;;;;;;4969739;28;20059;-84
2023/10/14 12:25:11;;;;;;;2.00;0.70;;;;;;;;;;4949552;28;20094;-85
2023/10/14 12:27:57;;;;;;;0.75;0.70;;;;;;;;;;4966684;28;20059;-83
2023/10/14 12:30:43;;;;;;;0.55;0.55;;;;;;;;;;4962811;28;20078;-85
2023/10/14 12:33:31;;;;;;;0.70;0.70;;;;;;;;;;4952943;28;20041;-85
2023/10/14 12:36:17;;;;;;;3.20;0.77;;;;;;;;;;4948648;28;20034;-83
2023/10/14 12:39:09;;;;;;;2.67;0.60;;;;;;;;;;4952942;29;20034;-85
2023/10/14 12:42:02;;;;;;;2.50;0.70;;;;;;;;;;4953131;28;20023;-83
2023/10/14 12:44:50;;;;;;;2.10;0.90;;;;;;;;;;4953922;28;20094;-82
2023/10/14 12:47:38;;;;;;;0.70;0.70;;;;;;;;;;4950563;29;20732;-81
2023/10/14 12:50:26;;;;;;;1.48;0.90;;;;;;;;;;4950739;28;20042;-81
2023/10/14 12:53:12;;;;;;;1.20;0.63;;;;;;;;;;4952500;28;20031;-82
2023/10/14 12:55:59;;;;;;;0.90;0.80;;;;;;;;;;4948746;28;20119;-82
2023/10/14 12:59:26;;;;;;;1.42;0.85;;;;;;;;;;4954339;28;20023;-82
2023/10/14 13:02:17;;;;;;;0.77;0.68;;;;;;;;;;4952771;28;20019;-85
2023/10/14 13:05:03;;;;;;;1.77;0.80;;;;;;;;;;4937508;28;20042;-85
2023/10/14 13:07:52;;;;;;;0.63;0.60;;;;;;;;;;4950906;29;20157;-85
2023/10/14 13:10:37;;;;;;;1.20;0.77;;;;;;;;;;4936051;29;20027;-85
2023/10/14 13:13:23;;;;;;;1.75;1.02;;;;;;;;;;4963331;28;20038;-84
2023/10/14 13:16:09;;;;;;;1.35;0.70;;;;;;;;;;4960258;28;20429;-84
2023/10/14 13:18:56;;;;;;;2.70;0.80;;;;;;;;;;4950887;28;20414;-85
2023/10/14 13:21:42;;;;;;;1.45;0.80;;;;;;;;;;4953811;28;20039;-83
2023/10/14 13:24:27;;;;;;;3.10;0.90;;;;;;;;;;4968475;28;20035;-83
2023/10/14 13:27:13;;;;;;;1.52;0.82;;;;;;;;;;4946528;29;20097;-82
2023/10/14 13:30:08;;;;;;;0.85;0.80;;;;;;;;;;4948267;28;20047;-90
2023/10/14 13:32:54;;;;;;;0.80;0.80;;;;;;;;;;4947955;28;20038;-87
2023/10/14 13:35:40;;;;;;;2.88;1.10;;;;;;;;;;4952612;28;20066;-88
2023/10/14 13:38:25;;;;;;;1.17;1.02;;;;;;;;;;4944876;29;20441;-88
2023/10/14 13:41:14;;;;;;;1.33;0.90;;;;;;;;;;4947566;28;20038;-89
2023/10/14 13:44:01;;;;;;;2.10;1.13;;;;;;;;;;4952247;28;20018;-83
2023/10/14 13:46:46;;;;;;;1.30;0.82;;;;;;;;;;4950977;28;20023;-85
2023/10/14 13:49:31;;;;;;;1.25;0.90;;;;;;;;;;4948640;28;20035;-85
2023/10/14 13:52:16;;;;;;;1.13;0.82;;;;;;;;;;4948689;29;20034;-84
2023/10/14 13:55:04;;;;;;;2.25;1.33;;;;;;;;;;4946195;28;20397;-85
2023/10/14 13:57:50;;;;;;;1.85;1.00;;;;;;;;;;4949394;29;20031;-85
2023/10/14 14:00:35;;;;;;;2.70;1.00;;;;;;;;;;4956929;28;20254;-85
2023/10/14 14:03:21;;;;;;;2.83;1.40;;;;;;;;;;4948749;28;20075;-84
2023/10/14 14:06:07;;;;;;;2.08;1.20;;;;;;;;;;4948196;28;20058;-84
2023/10/14 14:08:55;;;;;;;5.03;1.30;;;;;;;;;;4947775;28;20111;-83
2023/10/14 14:11:41;;;;;;;2.53;1.10;;;;;;;;;;4936692;29;20023;-85
2023/10/14 14:14:26;;;;;;;1.48;0.93;;;;;;;;;;4948621;29;20071;-82
2023/10/14 14:17:12;;;;;;;1.88;1.20;;;;;;;;;;4946726;29;20053;-84
2023/10/14 14:19:58;;;;;;;2.08;1.25;;;;;;;;;;4940015;29;20028;-82
2023/10/14 14:22:44;;;;;;;2.00;1.42;;;;;;;;;;4950189;28;20042;-83
2023/10/14 14:25:30;;;;;;;2.83;1.10;;;;;;;;;;4945243;28;20040;-82
2023/10/14 14:28:17;;;;;;;1.55;1.13;;;;;;;;;;4963937;28;20037;-81
2023/10/14 14:31:02;;;;;;;2.40;1.50;;;;;;;;;;4945410;28;20034;-84
2023/10/14 14:33:47;;;;;;;1.88;1.25;;;;;;;;;;4949130;28;20031;-78
2023/10/14 14:36:33;;;;;;;5.88;1.83;;;;;;;;;;4940285;28;20020;-81
2023/10/14 14:39:19;;;;;;;2.60;1.48;;;;;;;;;;4946621;29;20082;-80
2023/10/14 14:42:04;;;;;;;2.70;1.60;;;;;;;;;;4949116;28;20074;-81
2023/10/14 14:44:49;;;;;;;4.75;2.53;;;;;;;;;;4950475;28;20019;-81
2023/10/14 14:47:35;;;;;;;1.95;1.60;;;;;;;;;;4949924;29;20027;-80
2023/10/14 14:50:24;;;;;;;4.97;1.70;;;;;;;;;;4951031;28;20019;-82
2023/10/14 14:53:09;;;;;;;2.70;1.38;;;;;;;;;;4951204;29;20056;-82
2023/10/14 14:55:54;;;;;;;4.00;1.60;;;;;;;;;;4951006;28;20023;-82
2023/10/14 14:58:40;;;;;;;4.88;2.70;;;;;;;;;;4952614;29;20046;-84
2023/10/14 15:01:29;;;;;;;4.00;1.67;;;;;;;;;;4951103;28;20039;-84
2023/10/14 15:04:16;;;;;;;4.75;1.88;;;;;;;;;;4950790;29;20085;-85
2023/10/14 15:07:01;;;;;;;4.88;1.85;;;;;;;;;;4960818;28;20050;-84
2023/10/14 15:09:47;;;;;;;3.95;2.30;;;;;;;;;;4949843;28;20034;-85
2023/10/14 15:12:33;;;;;;;5.53;2.30;;;;;;;;;;4959707;28;20043;-83
2023/10/14 15:15:18;;;;;;;6.40;2.20;;;;;;;;;;4952483;28;20031;-83
2023/10/14 15:18:07;;;;;;;6.22;1.90;;;;;;;;;;4952819;28;20130;-82
2023/10/14 15:20:52;;;;;;;4.53;1.90;;;;;;;;;;4950421;28;20050;-83
2023/10/14 15:23:38;;;;;;;5.40;2.13;;;;;;;;;;4946537;28;20385;-82
2023/10/14 15:26:24;;;;;;;5.32;2.03;;;;;;;;;;4953253;28;20038;-83
2023/10/14 15:29:12;;;;;;;6.50;2.40;;;;;;;;;;4966898;28;20031;-83
2023/10/14 15:31:57;;;;;;;8.68;2.47;;;;;;;;;;4955859;28;20031;-83
2023/10/14 15:34:47;;;;;;;10.27;2.40;;;;;;;;;;4954555;28;20039;-82
2023/10/14 15:37:32;;;;;;;5.35;1.92;;;;;;;;;;4952798;28;20073;-82
2023/10/14 15:40:18;;;;;;;9.25;3.63;;;;;;;;;;4953195;28;20038;-82
2023/10/14 15:43:06;;;;;;;10.70;3.00;;;;;;;;;;4951876;28;20027;-83
2023/10/14 15:45:57;;;;;;;8.50;2.00;;;;;;;;;;4948000;28;20110;-83
2023/10/14 15:48:42;;;;;;;7.90;2.45;;;;;;;;;;4950923;29;20081;-83
2023/10/14 15:51:27;;;;;;;7.25;2.65;;;;;;;;;;4952332;29;20023;-82
2023/10/14 15:54:13;;;;;;;5.78;1.90;;;;;;;;;;4944575;28;20027;-91
2023/10/14 15:56:59;;;;;;;7.32;2.00;;;;;;;;;;4958725;28;20142;-92
2023/10/14 15:59:45;;;;;;;7.95;2.70;;;;;;;;;;4963011;28;20030;-93
2023/10/14 16:02:30;;;;;;;5.60;1.88;;;;;;;;;;4961972;28;20078;-91
2023/10/14 16:05:16;;;;;;;10.52;2.28;;;;;;;;;;4949837;28;20423;-86
2023/10/14 16:08:02;;;;;;;6.70;2.30;;;;;;;;;;4947535;28;20030;-86
2023/10/14 16:10:48;;;;;;;12.93;2.15;;;;;;;;;;4951394;29;20042;-86
2023/10/14 16:13:34;;;;;;;5.07;2.20;;;;;;;;;;4962304;28;20047;-89
2023/10/14 16:16:22;;;;;;;8.55;2.35;;;;;;;;;;4949613;28;20074;-84
2023/10/14 16:19:07;;;;;;;7.13;2.70;;;;;;;;;;4947935;28;20047;-85
2023/10/14 16:21:55;;;;;;;7.40;2.80;;;;;;;;;;4946774;28;20031;-81
2023/10/14 16:24:40;;;;;;;10.07;2.83;;;;;;;;;;4947205;28;20023;-79
2023/10/14 16:27:26;;;;;;;6.00;2.08;;;;;;;;;;4951176;28;20149;-83
2023/10/14 16:30:14;;;;;;;10.05;3.40;;;;;;;;;;4944340;28;20031;-81
2023/10/14 16:33:02;;;;;;;5.72;1.83;;;;;;;;;;4941314;28;20054;-84
2023/10/14 16:35:50;;;;;;;9.07;2.78;;;;;;;;;;4950186;28;20042;-82
2023/10/14 16:38:36;;;;;;;4.95;2.10;;;;;;;;;;4945773;28;20043;-81
2023/10/14 16:41:23;;;;;;;6.72;2.72;;;;;;;;;;4949775;28;20027;-83
2023/10/14 16:44:09;;;;;;;6.22;2.35;;;;;;;;;;4937575;29;20114;-82
2023/10/14 16:46:54;;;;;;;7.80;2.38;;;;;;;;;;4951245;29;20093;-82
2023/10/14 16:49:43;;;;;;;10.35;2.10;;;;;;;;;;4944174;28;20457;-82
2023/10/14 16:52:29;;;;;;;8.43;3.08;;;;;;;;;;4948735;28;20066;-82
2023/10/14 16:55:15;;;;;;;5.80;2.30;;;;;;;;;;4948772;28;20038;-82
2023/10/14 16:58:00;;;;;;;8.57;2.80;;;;;;;;;;4951098;28;20355;-82
2023/10/14 17:00:46;;;;;;;7.88;2.72;;;;;;;;;;4945407;28;20047;-81
2023/10/14 17:03:32;;;;;;;7.00;2.65;;;;;;;;;;4949250;28;20046;-81
2023/10/14 17:06:17;;;;;;;6.18;2.15;;;;;;;;;;4948641;28;20086;-84
2023/10/14 17:09:10;;;;;;;8.68;2.47;;;;;;;;;;4940588;28;20038;-82
2023/10/14 17:11:55;;;;;;;5.97;2.72;;;;;;;;;;4964241;28;20014;-78